Time;durP1;ratioP1;P1;durP2;ratioP2;P2;SDS_P1;SDS_P2;PMS_P1;PMS_P2;Temp;Humidity;BMP_temperature;BMP_pressure;BME280_temperature;BME280_humidity;BME280_pressure;Samples;Min_cycle;Max_cycle;Signal;HPM_P1;HPM_P2
2021/06/18 00:00:27;;;;;;;11.75;5.68;;;22.30;95.70;;;;;;5056263;28;20071;-72
2021/06/18 00:02:55;;;;;;;7.90;5.10;;;22.20;96.20;;;;;;5063773;28;20050;-72
2021/06/18 00:05:20;;;;;;;11.75;5.53;;;22.20;94.70;;;;;;5062957;28;20043;-72
2021/06/18 00:07:49;;;;;;;13.40;5.57;;;22.10;94.80;;;;;;5065694;28;20028;-72
2021/06/18 00:10:16;;;;;;;9.27;4.93;;;22.10;93.90;;;;;;5059560;28;20035;-72
2021/06/18 00:12:41;;;;;;;20.70;6.47;;;22.10;94.50;;;;;;5060161;28;20017;-72
2021/06/18 00:15:10;;;;;;;11.07;5.25;;;22.10;92.80;;;;;;5055746;28;20527;-72
2021/06/18 00:17:38;;;;;;;7.55;5.13;;;22.10;93.70;;;;;;5057789;28;20841;-72
2021/06/18 00:20:05;;;;;;;17.65;6.35;;;22.00;95.10;;;;;;5056297;28;20058;-72
2021/06/18 00:22:33;;;;;;;16.95;6.15;;;22.00;94.60;;;;;;5059388;28;20037;-72
2021/06/18 00:24:59;;;;;;;8.30;5.00;;;22.00;93.40;;;;;;5057629;28;20037;-72
2021/06/18 00:27:25;;;;;;;10.40;4.93;;;22.00;94.50;;;;;;5058079;28;20129;-72
2021/06/18 00:29:51;;;;;;;10.18;5.00;;;21.90;93.60;;;;;;5062757;28;20033;-72
2021/06/18 00:32:17;;;;;;;14.48;5.28;;;21.90;94.00;;;;;;5061408;28;20416;-72
2021/06/18 00:34:43;;;;;;;9.65;5.00;;;21.90;93.20;;;;;;5067649;28;20040;-72
2021/06/18 00:37:09;;;;;;;7.68;5.03;;;21.80;93.80;;;;;;5067688;28;20025;-72
2021/06/18 00:39:34;;;;;;;15.55;5.30;;;21.90;94.40;;;;;;5067510;28;20025;-72
2021/06/18 00:42:05;;;;;;;11.25;5.35;;;21.80;94.10;;;;;;5061007;28;20535;-72
2021/06/18 00:44:31;;;;;;;18.63;5.80;;;21.80;94.00;;;;;;5058513;28;20033;-72
2021/06/18 00:46:56;;;;;;;8.45;5.25;;;21.70;93.80;;;;;;5041647;28;20362;-72
2021/06/18 00:49:22;;;;;;;15.70;5.82;;;21.80;93.50;;;;;;5062116;28;20032;-72
2021/06/18 00:51:48;;;;;;;19.25;5.88;;;21.70;93.50;;;;;;5057611;28;20028;-72
2021/06/18 00:54:28;;;;;;;20.65;6.90;;;21.70;93.80;;;;;;5054191;28;20036;-72
2021/06/18 00:56:57;;;;;;;17.25;6.10;;;21.60;93.80;;;;;;5055416;28;20541;-72
2021/06/18 00:59:25;;;;;;;9.32;5.57;;;21.60;93.80;;;;;;5058068;28;20040;-72
2021/06/18 01:01:52;;;;;;;12.77;5.22;;;21.50;92.00;;;;;;5058278;28;20028;-72
2021/06/18 01:04:18;;;;;;;9.88;5.05;;;21.60;93.50;;;;;;5031789;28;20039;-72
2021/06/18 01:06:47;;;;;;;15.45;5.95;;;21.60;93.60;;;;;;5064648;28;20020;-72
2021/06/18 01:09:13;;;;;;;18.50;6.60;;;21.50;93.60;;;;;;5054666;28;20114;-72
2021/06/18 01:12:02;;;;;;;11.23;5.13;;;21.60;93.80;;;;;;5056654;28;20482;-72
2021/06/18 01:15:02;;;;;;;8.73;4.93;;;21.50;92.20;;;;;;5061073;28;20027;-72
2021/06/18 01:17:55;;;;;;;12.68;5.30;;;21.50;93.40;;;;;;5062460;28;20377;-72
2021/06/18 01:20:59;;;;;;;9.52;5.20;;;21.50;94.30;;;;;;5058545;28;20036;-72
2021/06/18 01:23:36;;;;;;;14.23;5.60;;;21.40;95.40;;;;;;5059951;28;20338;-72
2021/06/18 01:26:34;;;;;;;17.70;5.88;;;21.40;93.30;;;;;;5033411;28;20040;-72
2021/06/18 01:29:03;;;;;;;19.00;6.55;;;21.40;94.30;;;;;;5039827;28;20040;-72
2021/06/18 01:31:31;;;;;;;9.52;5.10;;;21.40;93.50;;;;;;5062941;28;20424;-72
2021/06/18 01:34:25;;;;;;;12.32;5.20;;;21.40;93.90;;;;;;5057206;28;20029;-72
2021/06/18 01:36:57;;;;;;;13.10;5.30;;;21.40;94.00;;;;;;5053535;28;20045;-72
2021/06/18 01:39:22;;;;;;;13.38;5.40;;;21.40;95.20;;;;;;5042465;28;20048;-72
2021/06/18 01:41:50;;;;;;;22.10;6.05;;;21.30;95.40;;;;;;5058255;28;20488;-72
2021/06/18 01:44:18;;;;;;;16.08;5.95;;;21.30;95.10;;;;;;5054582;28;20066;-72
2021/06/18 01:46:43;;;;;;;8.73;4.90;;;21.30;95.60;;;;;;5076190;28;20024;-72
2021/06/18 01:49:10;;;;;;;19.40;6.22;;;21.30;95.00;;;;;;5059943;28;20122;-73
2021/06/18 01:51:36;;;;;;;14.55;5.35;;;21.30;94.60;;;;;;5029339;28;20033;-72
2021/06/18 01:54:04;;;;;;;7.55;4.85;;;21.30;94.90;;;;;;5057989;28;20024;-72
2021/06/18 01:56:31;;;;;;;13.55;5.32;;;21.30;94.10;;;;;;5060037;28;20108;-73
2021/06/18 01:58:58;;;;;;;11.50;5.40;;;21.30;94.60;;;;;;5057899;28;20187;-73
2021/06/18 02:01:25;;;;;;;10.30;4.78;;;21.30;94.60;;;;;;5042570;28;20033;-73
2021/06/18 02:03:53;;;;;;;14.02;4.95;;;21.30;94.80;;;;;;5057298;28;20456;-72
2021/06/18 02:06:19;;;;;;;23.52;6.78;;;21.20;94.60;;;;;;5074468;28;20036;-72
2021/06/18 02:08:45;;;;;;;24.42;6.40;;;21.20;94.20;;;;;;5056033;28;20110;-72
2021/06/18 02:11:12;;;;;;;19.02;6.47;;;21.20;93.80;;;;;;5053366;28;20381;-72
2021/06/18 02:13:37;;;;;;;14.93;5.63;;;21.10;94.20;;;;;;5038957;28;20032;-72
2021/06/18 02:16:03;;;;;;;14.32;5.00;;;21.10;94.90;;;;;;5039194;28;20031;-72
2021/06/18 02:18:29;;;;;;;12.10;5.10;;;21.10;95.80;;;;;;5053874;28;20025;-72
2021/06/18 02:20:55;;;;;;;12.88;5.30;;;21.00;95.50;;;;;;5058497;28;20163;-72
2021/06/18 02:23:26;;;;;;;17.13;6.05;;;21.00;95.10;;;;;;5055586;28;20049;-72
2021/06/18 02:25:51;;;;;;;18.38;5.93;;;21.00;94.90;;;;;;5052874;28;20122;-72
2021/06/18 02:28:19;;;;;;;16.45;5.22;;;20.90;94.80;;;;;;5056877;28;20037;-72
2021/06/18 02:30:47;;;;;;;10.48;4.60;;;20.90;95.20;;;;;;5032771;28;20028;-72
2021/06/18 02:33:12;;;;;;;8.45;4.75;;;20.90;95.80;;;;;;5059396;28;20025;-72
2021/06/18 02:35:43;;;;;;;22.08;6.47;;;20.80;95.60;;;;;;5054375;28;20033;-72
2021/06/18 02:38:12;;;;;;;11.95;5.43;;;20.80;96.60;;;;;;5060383;28;20032;-72
2021/06/18 02:40:37;;;;;;;8.98;4.82;;;20.80;96.40;;;;;;5060343;28;20037;-73
2021/06/18 02:43:08;;;;;;;9.07;5.05;;;20.80;96.20;;;;;;5060461;28;20578;-72
2021/06/18 02:45:34;;;;;;;8.82;4.85;;;20.80;96.80;;;;;;5085529;28;20386;-72
2021/06/18 02:48:31;;;;;;;15.70;5.70;;;20.70;96.60;;;;;;5063285;28;20032;-72
2021/06/18 02:51:16;;;;;;;9.27;5.20;;;20.70;96.80;;;;;;5063255;28;20451;-72
2021/06/18 02:53:55;;;;;;;7.90;4.72;;;20.70;96.40;;;;;;5061998;28;20500;-72
2021/06/18 02:56:21;;;;;;;21.90;6.18;;;20.60;97.30;;;;;;5061056;28;20331;-72
2021/06/18 02:59:05;;;;;;;10.27;5.38;;;20.60;97.90;;;;;;5059305;28;20122;-72
2021/06/18 03:01:35;;;;;;;9.07;5.05;;;20.60;98.90;;;;;;5060265;28;20028;-72
2021/06/18 03:04:01;;;;;;;16.50;6.25;;;20.60;97.00;;;;;;5061821;28;20048;-72
2021/06/18 03:06:29;;;;;;;12.02;5.70;;;20.60;97.70;;;;;;5056522;28;20581;-72
2021/06/18 03:09:01;;;;;;;10.13;5.38;;;20.60;99.40;;;;;;5059775;28;20032;-72
2021/06/18 03:11:37;;;;;;;17.90;6.65;;;20.50;99.60;;;;;;5070039;28;20086;-72
2021/06/18 03:14:07;;;;;;;12.73;6.15;;;20.60;99.00;;;;;;5025091;28;20032;-72
2021/06/18 03:16:33;;;;;;;13.45;6.00;;;20.50;99.40;;;;;;5059391;28;20028;-72
2021/06/18 03:19:02;;;;;;;8.73;5.60;;;20.50;99.50;;;;;;5041612;28;20039;-72
2021/06/18 03:21:32;;;;;;;16.30;6.93;;;20.60;98.60;;;;;;5056196;28;20170;-72
2021/06/18 03:24:01;;;;;;;15.20;6.40;;;20.60;98.60;;;;;;5056535;28;20064;-72
2021/06/18 03:26:27;;;;;;;11.23;5.88;;;20.60;99.10;;;;;;5041974;28;20040;-73
2021/06/18 03:28:56;;;;;;;9.00;5.78;;;20.60;99.40;;;;;;5058210;28;20028;-72
2021/06/18 03:31:24;;;;;;;8.50;5.40;;;20.60;99.00;;;;;;5056074;28;20029;-73
2021/06/18 03:33:52;;;;;;;14.45;5.78;;;20.60;99.60;;;;;;5059723;28;20020;-72
2021/06/18 03:36:23;;;;;;;7.82;5.50;;;20.50;99.30;;;;;;5060471;28;20037;-72
2021/06/18 03:38:53;;;;;;;7.13;5.65;;;20.50;99.90;;;;;;5058520;28;20020;-72
2021/06/18 03:41:21;;;;;;;11.43;6.38;;;20.50;99.90;;;;;;5042974;28;20029;-72
2021/06/18 03:43:50;;;;;;;12.05;6.35;;;20.50;99.90;;;;;;5059925;28;20041;-72
2021/06/18 03:46:16;;;;;;;12.93;6.32;;;20.50;99.90;;;;;;5064423;28;20377;-72
2021/06/18 03:48:43;;;;;;;18.55;6.68;;;20.50;99.90;;;;;;5060149;28;20020;-72
2021/06/18 03:51:12;;;;;;;9.35;5.90;;;20.50;99.90;;;;;;5059337;28;20039;-72
2021/06/18 03:53:37;;;;;;;9.00;5.85;;;20.50;99.90;;;;;;5062736;28;20025;-72
2021/06/18 03:56:03;;;;;;;10.13;5.90;;;20.50;99.90;;;;;;5033840;28;20035;-72
2021/06/18 03:58:32;;;;;;;10.50;6.43;;;20.50;99.90;;;;;;5041162;28;20484;-72
2021/06/18 04:01:00;;;;;;;11.27;5.65;;;20.50;99.90;;;;;;5058059;28;20441;-72
2021/06/18 04:03:26;;;;;;;22.88;6.68;;;20.50;99.90;;;;;;5055412;28;20032;-72
2021/06/18 04:05:51;;;;;;;10.52;6.07;;;20.50;99.90;;;;;;5045500;28;21947;-72
2021/06/18 04:08:20;;;;;;;11.60;5.70;;;20.50;99.90;;;;;;5055729;28;20107;-72
2021/06/18 04:10:45;;;;;;;12.02;5.95;;;20.50;99.90;;;;;;5078138;28;20025;-72
2021/06/18 04:13:13;;;;;;;12.75;5.90;;;20.50;99.90;;;;;;5064710;28;20035;-72
2021/06/18 04:15:40;;;;;;;11.60;5.75;;;20.50;99.90;;;;;;5060209;28;20035;-72
2021/06/18 04:18:05;;;;;;;10.80;6.25;;;20.50;99.90;;;;;;5059626;28;20026;-72
2021/06/18 04:20:31;;;;;;;15.48;5.97;;;20.50;99.90;;;;;;5060226;28;20428;-72
2021/06/18 04:22:57;;;;;;;11.95;6.13;;;20.40;99.90;;;;;;5060786;28;20543;-72
2021/06/18 04:25:23;;;;;;;12.48;5.75;;;20.50;99.90;;;;;;5059549;28;20489;-72
2021/06/18 04:27:48;;;;;;;10.00;6.10;;;20.50;99.90;;;;;;5062339;28;20033;-72
2021/06/18 04:30:18;;;;;;;13.07;6.10;;;20.50;99.90;;;;;;5062570;28;20029;-72
2021/06/18 04:32:43;;;;;;;17.45;6.28;;;20.50;99.90;;;;;;5062094;28;20683;-73
2021/06/18 04:35:09;;;;;;;11.02;6.30;;;20.50;99.90;;;;;;5059401;28;20043;-72
2021/06/18 04:37:35;;;;;;;20.75;7.20;;;20.50;99.90;;;;;;5057093;28;20611;-72
2021/06/18 04:40:04;;;;;;;8.05;5.60;;;20.50;99.90;;;;;;5055177;28;20028;-72
2021/06/18 04:42:30;;;;;;;7.50;5.53;;;20.60;99.90;;;;;;5059027;28;20445;-72
2021/06/18 04:44:56;;;;;;;7.72;5.70;;;20.60;99.90;;;;;;5057211;28;20033;-72
2021/06/18 04:47:24;;;;;;;8.85;5.72;;;20.60;99.90;;;;;;5056034;28;20032;-72
2021/06/18 04:49:50;;;;;;;9.88;5.93;;;20.60;99.90;;;;;;5058089;28;20035;-72
2021/06/18 04:52:18;;;;;;;11.40;6.10;;;20.60;99.90;;;;;;5061030;28;20025;-73
2021/06/18 04:54:47;;;;;;;11.52;6.32;;;20.70;99.90;;;;;;5062670;28;20064;-72
2021/06/18 04:57:16;;;;;;;10.48;6.13;;;20.70;99.90;;;;;;5057903;28;20028;-72
2021/06/18 04:59:41;;;;;;;10.32;5.80;;;20.70;99.90;;;;;;5055633;28;20051;-73
2021/06/18 05:02:09;;;;;;;7.32;5.82;;;20.70;99.90;;;;;;5054897;28;20036;-73
2021/06/18 05:04:34;;;;;;;10.88;5.70;;;20.80;99.90;;;;;;5073567;28;20125;-73
2021/06/18 05:07:03;;;;;;;13.15;5.90;;;20.80;99.90;;;;;;5056702;28;20469;-73
2021/06/18 05:09:31;;;;;;;8.50;5.45;;;20.80;99.90;;;;;;5058222;28;20039;-73
2021/06/18 05:11:56;;;;;;;14.65;6.10;;;20.80;99.90;;;;;;5058085;28;20032;-72
2021/06/18 05:14:22;;;;;;;11.45;5.95;;;20.90;99.90;;;;;;5060655;28;20474;-73
2021/06/18 05:16:50;;;;;;;10.98;6.65;;;20.90;99.90;;;;;;5064291;28;20047;-73
2021/06/18 05:19:15;;;;;;;9.60;5.85;;;20.90;99.90;;;;;;5056393;28;20107;-72
2021/06/18 05:21:43;;;;;;;10.93;6.03;;;20.90;99.90;;;;;;5058634;28;20469;-70
2021/06/18 05:24:12;;;;;;;15.27;8.13;;;21.00;99.90;;;;;;5061357;28;20048;-69
2021/06/18 05:26:41;;;;;;;13.48;7.22;;;21.00;99.90;;;;;;5073140;28;20032;-72
2021/06/18 05:29:08;;;;;;;16.20;7.07;;;21.10;99.90;;;;;;5055928;28;20050;-73
2021/06/18 05:31:36;;;;;;;9.73;6.07;;;21.10;99.90;;;;;;5057534;28;20036;-72
2021/06/18 05:34:02;;;;;;;8.85;6.00;;;21.20;99.90;;;;;;5056014;28;20028;-72
2021/06/18 05:36:27;;;;;;;11.63;6.18;;;21.20;99.90;;;;;;5054928;28;20040;-73
2021/06/18 05:38:55;;;;;;;11.85;6.30;;;21.20;99.90;;;;;;5056421;28;20016;-72
2021/06/18 05:41:23;;;;;;;15.88;6.72;;;21.30;99.90;;;;;;5058584;28;20090;-72
2021/06/18 05:43:53;;;;;;;10.05;6.07;;;21.40;99.90;;;;;;5059070;28;20025;-72
2021/06/18 05:46:18;;;;;;;9.27;6.32;;;21.30;99.90;;;;;;5057438;28;20071;-72
2021/06/18 05:48:46;;;;;;;9.50;6.57;;;21.40;99.90;;;;;;5055702;28;20127;-69
2021/06/18 05:51:16;;;;;;;11.68;7.18;;;21.40;99.90;;;;;;5056380;28;20672;-69
2021/06/18 05:53:42;;;;;;;11.23;6.85;;;21.50;99.90;;;;;;5057841;28;20660;-72
2021/06/18 05:56:08;;;;;;;8.50;7.60;;;21.50;99.90;;;;;;5074316;28;20110;-73
2021/06/18 05:58:36;;;;;;;10.98;7.32;;;21.60;99.90;;;;;;5063412;28;20066;-73
2021/06/18 06:01:01;;;;;;;9.25;6.60;;;21.60;99.90;;;;;;5058189;28;20451;-73
2021/06/18 06:03:27;;;;;;;10.23;6.90;;;21.70;99.90;;;;;;5061304;28;20116;-73
2021/06/18 06:05:53;;;;;;;9.52;6.80;;;21.70;99.90;;;;;;5055858;28;20059;-73
2021/06/18 06:08:19;;;;;;;10.25;6.75;;;21.80;99.90;;;;;;5078937;28;20087;-73
2021/06/18 06:10:47;;;;;;;9.25;6.68;;;21.80;99.90;;;;;;5059989;28;20017;-73
2021/06/18 06:13:13;;;;;;;10.68;6.88;;;21.90;99.90;;;;;;5064805;28;20761;-73
2021/06/18 06:15:41;;;;;;;72.47;57.65;;;21.90;99.90;;;;;;5065907;28;20054;-70
2021/06/18 06:18:08;;;;;;;19.67;17.17;;;22.00;99.90;;;;;;5060034;28;20036;-70
2021/06/18 06:20:36;;;;;;;16.00;10.90;;;22.10;99.90;;;;;;5056606;28;20058;-73
2021/06/18 06:23:02;;;;;;;11.77;8.88;;;22.10;99.90;;;;;;5058958;28;20028;-73
2021/06/18 06:25:27;;;;;;;19.27;14.27;;;22.20;99.90;;;;;;5063031;28;20385;-73
2021/06/18 06:27:53;;;;;;;51.42;43.78;;;22.30;99.90;;;;;;5063834;28;20068;-73
2021/06/18 06:30:19;;;;;;;16.00;13.90;;;22.30;99.90;;;;;;5065271;28;20029;-73
2021/06/18 06:32:47;;;;;;;14.02;9.20;;;22.40;99.90;;;;;;5060509;28;20116;-73
2021/06/18 06:35:12;;;;;;;11.23;7.00;;;22.50;99.90;;;;;;5055121;28;20025;-70
2021/06/18 06:37:38;;;;;;;14.13;8.20;;;22.50;99.90;;;;;;5057120;28;20029;-70
2021/06/18 06:40:07;;;;;;;33.97;27.52;;;22.50;99.90;;;;;;5055433;28;20663;-74
2021/06/18 06:42:33;;;;;;;18.70;13.90;;;22.60;99.90;;;;;;5053452;28;20435;-73
2021/06/18 06:44:58;;;;;;;8.40;6.85;;;22.70;99.90;;;;;;5059570;28;20041;-73
2021/06/18 06:47:29;;;;;;;11.25;7.65;;;22.70;99.90;;;;;;5063069;28;20036;-73
2021/06/18 06:49:54;;;;;;;7.60;6.63;;;22.80;99.90;;;;;;5075831;28;20048;-73
2021/06/18 06:52:20;;;;;;;9.50;6.60;;;22.80;99.90;;;;;;5040886;28;20173;-73
2021/06/18 06:54:46;;;;;;;7.55;6.57;;;22.90;99.90;;;;;;5057649;28;20028;-73
2021/06/18 06:57:16;;;;;;;8.55;6.30;;;22.90;99.90;;;;;;5063360;28;20036;-73
2021/06/18 06:59:42;;;;;;;8.95;6.13;;;23.00;99.90;;;;;;5059813;28;20039;-73
2021/06/18 07:02:10;;;;;;;7.65;6.38;;;23.00;99.90;;;;;;5064630;28;20028;-73
2021/06/18 07:04:36;;;;;;;9.55;6.35;;;23.10;99.90;;;;;;5059369;28;20033;-73
2021/06/18 07:07:04;;;;;;;11.00;6.15;;;23.20;99.90;;;;;;5057022;28;20044;-73
2021/06/18 07:09:38;;;;;;;9.75;6.22;;;23.30;99.90;;;;;;5056846;28;20033;-73
2021/06/18 07:12:12;;;;;;;10.60;6.57;;;23.30;99.90;;;;;;5055406;28;20123;-73
2021/06/18 07:14:40;;;;;;;10.82;7.05;;;23.40;99.90;;;;;;5056911;28;20060;-75
2021/06/18 07:17:08;;;;;;;11.18;6.75;;;23.50;99.90;;;;;;5055849;28;20036;-74
2021/06/18 07:19:36;;;;;;;11.57;7.22;;;23.60;99.90;;;;;;5056289;28;20032;-74
2021/06/18 07:22:02;;;;;;;11.05;6.45;;;23.70;99.90;;;;;;5057293;28;20060;-74
2021/06/18 07:24:28;;;;;;;8.25;6.78;;;23.80;99.90;;;;;;5049912;28;20535;-74
2021/06/18 07:26:54;;;;;;;11.23;6.75;;;23.90;99.90;;;;;;5062976;28;20106;-74
2021/06/18 07:29:22;;;;;;;11.82;7.50;;;24.00;99.90;;;;;;5076586;28;20028;-74
2021/06/18 07:31:48;;;;;;;8.43;7.50;;;24.10;99.90;;;;;;5055813;28;20051;-74
2021/06/18 07:34:13;;;;;;;10.88;8.30;;;24.20;99.90;;;;;;5061119;28;20446;-74
2021/06/18 07:36:42;;;;;;;16.05;8.18;;;24.20;99.90;;;;;;5061155;28;20115;-74
2021/06/18 07:39:08;;;;;;;13.00;8.30;;;24.40;99.90;;;;;;5061666;28;20041;-74
2021/06/18 07:41:38;;;;;;;27.92;9.27;;;24.60;99.90;;;;;;5048473;28;20032;-75
2021/06/18 07:44:04;;;;;;;13.88;8.38;;;24.80;99.90;;;;;;5063847;28;20017;-74
2021/06/18 07:46:30;;;;;;;11.57;7.80;;;25.00;99.90;;;;;;5060105;28;20033;-75
2021/06/18 07:48:56;;;;;;;20.65;8.73;;;25.20;99.90;;;;;;5056164;28;20094;-75
2021/06/18 07:51:23;;;;;;;12.35;8.13;;;25.40;99.90;;;;;;5038821;28;20024;-77
2021/06/18 07:53:49;;;;;;;12.75;8.13;;;25.60;99.90;;;;;;5055781;28;20077;-77
2021/06/18 07:56:23;;;;;;;16.67;8.07;;;25.80;99.90;;;;;;5058351;28;20175;-77
2021/06/18 07:58:48;;;;;;;8.63;6.85;;;26.00;99.90;;;;;;5056140;28;20029;-77
2021/06/18 08:01:16;;;;;;;9.13;7.57;;;26.20;99.90;;;;;;5055477;28;20020;-75
2021/06/18 08:03:42;;;;;;;9.38;7.60;;;26.40;99.90;;;;;;5055299;28;20025;-77
2021/06/18 08:06:10;;;;;;;10.43;7.10;;;26.60;99.90;;;;;;5055594;28;20029;-75
2021/06/18 08:08:35;;;;;;;15.23;7.80;;;26.70;99.90;;;;;;5052761;28;20725;-75
2021/06/18 08:11:01;;;;;;;17.30;8.35;;;26.90;99.90;;;;;;5053725;28;20029;-75
2021/06/18 08:13:29;;;;;;;12.07;7.65;;;27.00;99.90;;;;;;5056551;28;20029;-75
2021/06/18 08:15:55;;;;;;;10.60;6.90;;;27.20;99.90;;;;;;5055609;28;20043;-75
2021/06/18 08:18:23;;;;;;;10.35;7.38;;;27.40;99.90;;;;;;5054813;28;20028;-75
2021/06/18 08:20:48;;;;;;;19.83;9.15;;;27.50;99.90;;;;;;5054782;28;20060;-76
2021/06/18 08:23:16;;;;;;;9.23;7.03;;;27.60;99.90;;;;;;5062526;28;20040;-75
2021/06/18 08:25:42;;;;;;;11.07;7.38;;;27.70;99.90;;;;;;5062285;28;20635;-75
2021/06/18 08:28:07;;;;;;;15.57;7.80;;;27.90;99.90;;;;;;5057389;28;20051;-75
2021/06/18 08:30:33;;;;;;;19.60;8.88;;;28.00;99.90;;;;;;5053368;28;20025;-75
2021/06/18 08:32:58;;;;;;;14.88;7.85;;;28.10;99.90;;;;;;5055727;28;20449;-75
2021/06/18 08:35:30;;;;;;;15.75;8.93;;;28.30;99.90;;;;;;5056245;28;20037;-75
2021/06/18 08:38:01;;;;;;;13.52;9.98;;;28.30;99.90;;;;;;5056389;28;20488;-75
2021/06/18 08:40:31;;;;;;;14.88;8.40;;;28.40;99.90;;;;;;5058934;28;20036;-76
2021/06/18 08:42:57;;;;;;;18.47;8.20;;;28.50;99.90;;;;;;5062406;28;20040;-75
2021/06/18 08:45:22;;;;;;;32.78;29.42;;;28.60;99.90;;;;;;5056154;28;20029;-71
2021/06/18 08:47:49;;;;;;;18.73;9.98;;;28.70;99.90;;;;;;5055837;28;20032;-71
2021/06/18 08:50:22;;;;;;;11.38;7.53;;;28.70;99.90;;;;;;5055878;28;20040;-75
2021/06/18 08:52:48;;;;;;;10.45;8.85;;;28.80;99.90;;;;;;5055065;28;20028;-75
2021/06/18 08:55:16;;;;;;;23.08;16.75;;;28.90;99.90;;;;;;5032101;28;20033;-75
2021/06/18 08:57:42;;;;;;;11.27;8.55;;;28.90;99.90;;;;;;5052133;28;20199;-75
2021/06/18 09:00:10;;;;;;;17.73;15.93;;;28.90;97.90;;;;;;5056134;28;20036;-75
2021/06/18 09:02:35;;;;;;;17.90;9.65;;;29.10;99.90;;;;;;5051780;28;20032;-75
2021/06/18 09:05:09;;;;;;;23.95;13.25;;;29.10;98.30;;;;;;5056070;28;20033;-76
2021/06/18 09:08:01;;;;;;;17.23;8.02;;;29.20;96.30;;;;;;5057153;28;20032;-75
2021/06/18 09:10:53;;;;;;;12.27;7.43;;;29.20;95.30;;;;;;5051057;28;20044;-75
2021/06/18 09:13:30;;;;;;;19.23;9.23;;;29.10;95.70;;;;;;5054518;28;20032;-74
2021/06/18 09:15:56;;;;;;;20.25;9.40;;;29.20;95.60;;;;;;5056985;28;20039;-76
2021/06/18 09:18:36;;;;;;;12.85;7.65;;;29.20;97.60;;;;;;5060008;28;20031;-76
2021/06/18 09:21:01;;;;;;;12.45;9.50;;;29.30;93.00;;;;;;5047346;28;20025;-75
2021/06/18 09:23:31;;;;;;;12.05;8.30;;;29.40;99.90;;;;;;5060925;28;20174;-76
2021/06/18 09:26:21;;;;;;;36.42;27.48;;;29.40;96.00;;;;;;5063471;28;20048;-75
2021/06/18 09:29:09;;;;;;;24.30;19.63;;;29.50;96.70;;;;;;5059781;28;20033;-76
2021/06/18 09:31:39;;;;;;;13.77;9.20;;;29.50;99.90;;;;;;5057391;28;20086;-75
2021/06/18 09:34:08;;;;;;;10.67;8.03;;;29.50;93.50;;;;;;5055767;28;20052;-75
2021/06/18 09:36:35;;;;;;;15.55;8.63;;;29.40;93.80;;;;;;5062265;28;20094;-76
2021/06/18 09:39:03;;;;;;;10.90;8.02;;;29.40;93.00;;;;;;5060768;28;20017;-76
2021/06/18 09:41:40;;;;;;;10.30;7.10;;;29.50;97.00;;;;;;5062558;28;20099;-76
2021/06/18 09:44:19;;;;;;;11.32;7.43;;;29.50;93.50;;;;;;5060629;28;20433;-76
2021/06/18 09:46:56;;;;;;;14.73;7.82;;;29.50;90.90;;;;;;5060318;28;20098;-75
2021/06/18 09:49:30;;;;;;;9.10;7.88;;;29.50;92.70;;;;;;5055640;28;20070;-76
2021/06/18 09:51:57;;;;;;;8.48;7.57;;;29.50;92.90;;;;;;5059507;28;20021;-76
2021/06/18 09:54:23;;;;;;;12.50;7.90;;;29.50;96.50;;;;;;5061407;28;20399;-76
2021/06/18 09:56:48;;;;;;;10.68;7.70;;;29.50;91.90;;;;;;5060475;28;20109;-75
2021/06/18 09:59:23;;;;;;;15.57;9.15;;;29.50;95.30;;;;;;5062412;28;20033;-76
2021/06/18 10:01:55;;;;;;;12.35;7.95;;;29.60;95.70;;;;;;5061035;28;20053;-75
2021/06/18 10:04:24;;;;;;;10.30;7.97;;;29.60;96.40;;;;;;5055534;28;20024;-75
2021/06/18 10:06:52;;;;;;;18.27;9.18;;;29.60;94.50;;;;;;5055741;28;20028;-76
2021/06/18 10:09:18;;;;;;;15.18;8.40;;;29.60;85.90;;;;;;5058443;28;20068;-76
2021/06/18 10:11:45;;;;;;;15.13;7.82;;;29.60;91.30;;;;;;5060031;28;20031;-76
2021/06/18 10:14:14;;;;;;;19.63;9.55;;;29.60;91.40;;;;;;5063457;28;20025;-76
2021/06/18 10:16:40;;;;;;;10.23;8.07;;;29.60;93.10;;;;;;5059848;28;20044;-78
2021/06/18 10:19:06;;;;;;;9.23;7.80;;;29.70;89.20;;;;;;5059743;28;20024;-76
2021/06/18 10:21:52;;;;;;;14.57;8.63;;;29.70;96.40;;;;;;5059734;28;20012;-76
2021/06/18 10:24:17;;;;;;;15.95;8.98;;;29.80;94.60;;;;;;5046565;28;20029;-76
2021/06/18 10:26:49;;;;;;;11.60;8.48;;;29.80;96.40;;;;;;5053325;28;20519;-76
2021/06/18 10:29:27;;;;;;;;;;;29.90;95.40;;;;;;5056796;28;20039;-76
2021/06/18 10:31:53;;;;;;;11.65;9.25;;;29.90;94.20;;;;;;5056422;28;20005;-76
2021/06/18 10:34:19;;;;;;;9.90;8.45;;;29.90;93.50;;;;;;5060568;28;20032;-76
2021/06/18 10:36:44;;;;;;;10.82;8.30;;;30.00;94.80;;;;;;5059715;28;20028;-76
2021/06/18 10:39:30;;;;;;;10.20;8.88;;;30.00;92.60;;;;;;5038312;28;20029;-75
2021/06/18 10:41:59;;;;;;;16.02;8.85;;;30.20;96.30;;;;;;5057649;28;20454;-76
2021/06/18 10:44:39;;;;;;;10.95;8.57;;;30.20;99.00;;;;;;5063164;28;20101;-76
2021/06/18 10:47:27;;;;;;;9.38;8.43;;;30.30;86.20;;;;;;5060903;28;20098;-76
2021/06/18 10:49:55;;;;;;;10.30;8.52;;;30.30;93.90;;;;;;5061801;28;20017;-75
2021/06/18 10:52:25;;;;;;;17.38;9.32;;;30.40;92.30;;;;;;5054737;28;20028;-76
2021/06/18 10:54:55;;;;;;;11.60;8.70;;;30.50;92.70;;;;;;5064522;28;20028;-76
2021/06/18 10:57:24;;;;;;;14.95;12.10;;;30.60;94.50;;;;;;5064312;28;20055;-76
2021/06/18 11:00:16;;;;;;;11.70;9.25;;;30.70;92.90;;;;;;5058249;28;20435;-76
2021/06/18 11:02:44;;;;;;;19.45;8.52;;;30.80;93.50;;;;;;5056212;28;20032;-76
2021/06/18 11:05:25;;;;;;;17.40;8.93;;;30.80;83.80;;;;;;5058416;28;20631;-76
2021/06/18 11:07:51;;;;;;;13.10;8.00;;;30.80;81.50;;;;;;5059081;28;20101;-76
2021/06/18 11:10:29;;;;;;;21.35;9.40;;;30.80;88.80;;;;;;5072282;28;20112;-75
2021/06/18 11:13:07;;;;;;;9.75;7.80;;;30.80;78.60;;;;;;5057053;28;20056;-76
2021/06/18 11:15:35;;;;;;;9.73;8.40;;;30.80;92.10;;;;;;5060091;28;20493;-76
2021/06/18 11:18:27;;;;;;;16.30;8.55;;;30.70;91.60;;;;;;5076559;28;20029;-76
2021/06/18 11:20:56;;;;;;;12.20;7.30;;;30.80;93.10;;;;;;5062653;28;20059;-75
2021/06/18 11:23:28;;;;;;;12.10;7.95;;;30.70;84.20;;;;;;5061605;28;20098;-75
2021/06/18 11:25:55;;;;;;;9.52;7.53;;;30.60;86.60;;;;;;5064673;28;20024;-75
2021/06/18 11:28:21;;;;;;;12.88;8.43;;;30.70;92.80;;;;;;5057252;28;20160;-75
2021/06/18 11:30:59;;;;;;;12.25;7.60;;;30.60;94.80;;;;;;5058646;28;20502;-76
2021/06/18 11:33:40;;;;;;;11.35;7.38;;;30.60;94.70;;;;;;5058079;28;20101;-75
2021/06/18 11:36:21;;;;;;;9.60;7.40;;;30.50;91.00;;;;;;5053183;28;20730;-75
2021/06/18 11:38:55;;;;;;;13.50;8.73;;;30.40;93.00;;;;;;5057082;28;20045;-75
2021/06/18 11:41:25;;;;;;;12.48;7.63;;;30.40;98.30;;;;;;5056660;28;20517;-75
2021/06/18 11:43:58;;;;;;;12.55;7.78;;;30.40;95.10;;;;;;5054194;28;20057;-76
2021/06/18 11:46:25;;;;;;;8.43;6.72;;;30.40;95.10;;;;;;5054651;28;20036;-75
2021/06/18 11:48:55;;;;;;;10.45;7.60;;;30.30;89.40;;;;;;5060451;28;20596;-75
2021/06/18 11:51:30;;;;;;;9.07;7.35;;;30.30;91.50;;;;;;5063578;28;20033;-75
2021/06/18 11:53:58;;;;;;;15.32;8.23;;;30.20;93.00;;;;;;5064757;28;20031;-76
2021/06/18 11:56:28;;;;;;;32.80;29.40;;;30.10;91.40;;;;;;5061658;28;20109;-75
2021/06/18 11:58:59;;;;;;;23.58;17.33;;;30.00;93.70;;;;;;5078707;28;20028;-75
2021/06/18 12:01:30;;;;;;;10.37;8.07;;;30.00;95.00;;;;;;5064800;28;20113;-75
2021/06/18 12:03:59;;;;;;;;;;;29.90;93.70;;;;;;5059688;28;20052;-75
2021/06/18 12:06:34;;;;;;;10.50;7.00;;;29.80;92.70;;;;;;5064767;28;20166;-75
2021/06/18 12:09:03;;;;;;;12.27;7.82;;;29.60;93.30;;;;;;5062699;28;20907;-75
2021/06/18 12:11:37;;;;;;;10.10;7.85;;;29.60;92.90;;;;;;5061429;28;20029;-75
2021/06/18 12:14:04;;;;;;;10.82;7.88;;;29.70;95.40;;;;;;5063581;28;20021;-75
2021/06/18 12:16:31;;;;;;;8.82;7.85;;;29.80;99.90;;;;;;5062348;28;20051;-75
2021/06/18 12:18:58;;;;;;;11.98;8.63;;;29.70;99.90;;;;;;5050067;28;20024;-75
2021/06/18 12:21:26;;;;;;;10.23;8.65;;;29.80;99.90;;;;;;5047706;28;20035;-75
2021/06/18 12:24:05;;;;;;;9.73;8.73;;;29.80;99.90;;;;;;5063676;28;20742;-75
2021/06/18 12:26:31;;;;;;;9.60;7.68;;;29.80;99.90;;;;;;5084096;28;20038;-75
2021/06/18 12:28:56;;;;;;;8.82;7.50;;;29.90;99.90;;;;;;5059447;28;20322;-75
2021/06/18 12:31:22;;;;;;;11.43;7.70;;;29.90;99.90;;;;;;5068420;28;20048;-75
2021/06/18 12:33:48;;;;;;;8.68;7.78;;;29.80;99.90;;;;;;5063693;28;20099;-75
2021/06/18 12:36:21;;;;;;;13.15;8.35;;;29.80;98.90;;;;;;5058417;28;20031;-75
2021/06/18 12:38:49;;;;;;;10.88;7.40;;;29.80;99.90;;;;;;5063674;28;20078;-75
2021/06/18 12:41:28;;;;;;;8.93;7.05;;;29.80;99.90;;;;;;5061985;28;20083;-75
2021/06/18 12:44:04;;;;;;;9.40;7.07;;;29.70;95.10;;;;;;5060159;28;20507;-75
2021/06/18 12:46:32;;;;;;;13.57;8.25;;;29.50;92.70;;;;;;5062938;28;20028;-75
2021/06/18 12:49:08;;;;;;;12.45;8.27;;;29.50;99.90;;;;;;5059398;28;20737;-75